Time;durP1;ratioP1;P1;durP2;ratioP2;P2;SDS_P1;SDS_P2;PMS_P1;PMS_P2;Temp;Humidity;BMP_temperature;BMP_pressure;BME280_temperature;BME280_humidity;BME280_pressure;Samples;Min_cycle;Max_cycle;Signal;HPM_P1;HPM_P2
2023/05/14 00:00:14;;;;;;;19.73;17.73;;;;;;;21.34;44.66;102145.03;5057079;28;20024;-66
2023/05/14 00:02:40;;;;;;;17.42;15.77;;;;;;;22.57;42.41;102135.25;5060672;28;20045;-66
2023/05/14 00:05:06;;;;;;;19.15;17.02;;;;;;;22.11;43.13;102141.44;5047812;28;20150;-66
2023/05/14 00:07:32;;;;;;;22.48;16.30;;;;;;;22.58;42.51;102137.00;5063730;28;20028;-66
2023/05/14 00:09:58;;;;;;;19.35;17.35;;;;;;;22.63;42.92;102137.69;5065282;28;20074;-66
2023/05/14 00:12:23;;;;;;;16.88;15.13;;;;;;;21.34;43.98;102125.56;5066518;28;20218;-67
2023/05/14 00:14:48;;;;;;;20.10;17.00;;;;;;;22.35;43.06;102130.78;5053510;28;20044;-66
2023/05/14 00:17:14;;;;;;;20.17;18.17;;;;;;;22.31;43.05;102126.47;5062276;28;20037;-66
2023/05/14 00:19:40;;;;;;;18.42;16.73;;;;;;;21.52;43.40;102122.28;5062861;28;20029;-67
2023/05/14 00:22:07;;;;;;;17.40;15.60;;;;;;;22.11;45.02;102120.13;5046783;28;20017;-66
2023/05/14 00:24:33;;;;;;;18.63;16.67;;;;;;;21.70;43.32;102111.91;5058216;28;20040;-66
2023/05/14 00:26:58;;;;;;;18.00;16.23;;;;;;;22.22;42.75;102110.88;5068655;28;20029;-66
2023/05/14 00:29:23;;;;;;;20.42;18.42;;;;;;;21.23;43.60;102110.00;5064164;28;20029;-66
2023/05/14 00:31:49;;;;;;;19.40;17.38;;;;;;;21.34;43.95;102106.97;5047874;28;20027;-66
2023/05/14 00:34:14;;;;;;;19.20;17.17;;;;;;;21.76;44.12;102103.72;5050897;28;20028;-66
2023/05/14 00:36:39;;;;;;;18.42;16.52;;;;;;;21.97;43.40;102104.69;5067823;28;20037;-67
2023/05/14 00:39:05;;;;;;;18.83;16.77;;;;;;;21.19;44.02;102098.59;5065266;28;20502;-66
2023/05/14 00:41:30;;;;;;;18.30;16.50;;;;;;;22.05;43.15;102099.09;5047015;28;20086;-67
2023/05/14 00:43:55;;;;;;;18.65;15.57;;;;;;;21.91;42.86;102099.59;5049287;28;20090;-66
2023/05/14 00:46:21;;;;;;;17.23;15.50;;;;;;;21.25;44.56;102099.31;5049879;28;20025;-66
2023/05/14 00:48:47;;;;;;;19.02;17.10;;;;;;;22.06;42.60;102094.63;5060607;28;20031;-67
2023/05/14 00:51:12;;;;;;;17.35;15.07;;;;;;;22.26;42.24;102091.19;5057617;28;20028;-67
2023/05/14 00:53:38;;;;;;;17.23;15.52;;;;;;;21.95;42.50;102087.03;5071307;28;20024;-66
2023/05/14 00:56:04;;;;;;;23.05;18.52;;;;;;;22.27;42.52;102087.56;5071703;28;20393;-67
2023/05/14 00:58:30;;;;;;;17.25;15.52;;;;;;;21.90;42.82;102083.69;5062151;28;20033;-66
2023/05/14 01:00:55;;;;;;;19.05;17.15;;;;;;;22.13;42.18;102085.47;5052556;28;20503;-66
2023/05/14 01:03:21;;;;;;;18.88;16.88;;;;;;;21.93;43.07;102094.22;5066771;28;20025;-67
2023/05/14 01:05:46;;;;;;;18.52;16.55;;;;;;;21.73;43.53;102102.94;5051611;28;20119;-67
2023/05/14 01:08:21;;;;;;;20.02;17.58;;;;;;;21.85;42.87;102100.69;5050898;28;20037;-66
2023/05/14 01:10:59;;;;;;;17.63;15.82;;;;;;;21.40;44.34;102095.22;5058667;28;20394;-66
2023/05/14 01:13:27;;;;;;;17.00;15.60;;;;;;;22.00;43.12;102091.25;5072037;28;20600;-66
2023/05/14 01:15:56;;;;;;;19.88;16.65;;;;;;;21.69;43.00;102099.53;5070176;28;20051;-66
2023/05/14 01:18:23;;;;;;;18.02;16.10;;;;;;;21.87;43.17;102095.31;5068655;28;20028;-66
2023/05/14 01:20:52;;;;;;;18.35;16.50;;;;;;;21.94;42.78;102094.16;5061915;28;20055;-66
2023/05/14 01:23:17;;;;;;;18.95;15.65;;;;;;;21.49;43.81;102101.09;5049576;28;20033;-66
2023/05/14 01:25:43;;;;;;;17.73;15.93;;;;;;;21.42;43.43;102094.25;5052553;28;20507;-66
2023/05/14 01:28:20;;;;;;;16.98;15.38;;;;;;;21.12;45.44;102089.09;5070514;28;20139;-66
2023/05/14 01:30:51;;;;;;;18.65;16.88;;;;;;;21.62;43.92;102095.34;5059028;28;20477;-66
2023/05/14 01:33:18;;;;;;;18.27;16.20;;;;;;;21.29;44.14;102098.28;5049898;28;20041;-66
2023/05/14 01:35:44;;;;;;;18.20;16.30;;;;;;;21.49;43.61;102090.44;5052192;28;20039;-66
2023/05/14 01:38:12;;;;;;;22.63;17.35;;;;;;;21.19;43.99;102093.25;5049560;28;20033;-66
2023/05/14 01:40:38;;;;;;;22.25;18.00;;;;;;;21.65;43.74;102079.28;5051214;28;20485;-67
2023/05/14 01:43:07;;;;;;;17.77;16.03;;;;;;;21.65;44.22;102088.13;5071608;28;20032;-67
2023/05/14 01:45:35;;;;;;;19.33;17.27;;;;;;;21.35;44.26;102090.09;5068589;28;20025;-66
2023/05/14 01:48:00;;;;;;;19.30;17.30;;;;;;;21.16;44.52;102082.75;5056538;28;20507;-67
2023/05/14 01:50:26;;;;;;;20.98;17.80;;;;;;;21.23;45.03;102079.88;5050896;28;20025;-66
2023/05/14 01:52:55;;;;;;;18.65;16.63;;;;;;;21.57;45.40;102070.72;5048382;28;20056;-66
2023/05/14 01:55:23;;;;;;;20.52;16.77;;;;;;;21.43;43.59;102080.06;5051186;28;20519;-66
2023/05/14 01:57:51;;;;;;;18.40;16.50;;;;;;;21.22;44.64;102080.81;5051275;28;20052;-66
2023/05/14 02:00:17;;;;;;;18.23;16.33;;;;;;;21.19;44.86;102072.00;5048464;28;20049;-66
2023/05/14 02:02:43;;;;;;;18.83;16.90;;;;;;;21.27;45.30;102073.53;5051209;28;20056;-66
2023/05/14 02:05:10;;;;;;;18.43;16.63;;;;;;;21.39;44.13;102067.78;5059701;28;20037;-66
2023/05/14 02:07:36;;;;;;;17.70;15.90;;;;;;;21.86;42.86;102053.66;5069817;28;20034;-66
2023/05/14 02:10:01;;;;;;;20.00;16.20;;;;;;;21.53;45.59;102056.66;5069489;28;20024;-66
2023/05/14 02:12:26;;;;;;;21.47;16.70;;;;;;;21.56;44.62;102053.03;5068838;28;20162;-66
2023/05/14 02:14:52;;;;;;;19.77;17.57;;;;;;;21.79;45.02;102058.34;5068810;28;20473;-66
2023/05/14 02:17:17;;;;;;;19.20;16.93;;;;;;;21.68;43.62;102053.44;5067032;28;20032;-66
2023/05/14 02:19:45;;;;;;;20.02;16.90;;;;;;;21.69;43.25;102048.97;5068152;28;20036;-66
2023/05/14 02:22:11;;;;;;;19.25;16.95;;;;;;;22.11;42.46;102050.06;5071221;28;20028;-66
2023/05/14 02:24:37;;;;;;;19.27;16.90;;;;;;;22.05;42.29;102050.28;5068218;28;20468;-66
2023/05/14 02:27:02;;;;;;;20.23;16.63;;;;;;;22.09;43.22;102050.13;5068908;28;20411;-66
2023/05/14 02:29:28;;;;;;;21.05;17.00;;;;;;;21.83;43.93;102067.97;5067711;28;20086;-66
2023/05/14 02:31:53;;;;;;;21.42;17.45;;;;;;;21.32;43.92;102066.25;5068848;28;20455;-66
2023/05/14 02:34:18;;;;;;;21.23;15.52;;;;;;;20.63;44.98;102061.47;5069688;28;20028;-66
2023/05/14 02:36:44;;;;;;;19.33;17.47;;;;;;;20.93;44.73;102058.75;5064814;28;20120;-66
2023/05/14 02:39:09;;;;;;;18.53;16.50;;;;;;;21.11;45.81;102058.09;5050602;28;20116;-66
2023/05/14 02:41:35;;;;;;;18.00;16.23;;;;;;;21.12;45.62;102059.84;5049715;28;20393;-66
2023/05/14 02:44:00;;;;;;;20.53;16.57;;;;;;;21.25;45.01;102054.09;5053814;28;20480;-66
2023/05/14 02:46:25;;;;;;;19.47;17.47;;;;;;;21.77;43.96;102046.88;5065219;28;20028;-66
2023/05/14 02:48:51;;;;;;;23.07;17.53;;;;;;;21.78;43.26;102053.94;5050141;28;20044;-66
2023/05/14 02:51:19;;;;;;;17.53;15.50;;;;;;;21.83;42.96;102052.00;5048783;28;20392;-66
2023/05/14 02:53:44;;;;;;;19.55;17.00;;;;;;;21.64;43.66;102056.28;5049386;28;20028;-66
2023/05/14 02:56:09;;;;;;;17.23;15.47;;;;;;;21.04;44.91;102051.28;5058754;28;20124;-66
2023/05/14 02:58:35;;;;;;;18.77;16.87;;;;;;;20.96;46.09;102053.34;5061469;28;20028;-65
2023/05/14 03:01:00;;;;;;;19.10;16.95;;;;;;;21.43;43.65;102044.59;5078778;28;20034;-65
2023/05/14 03:03:25;;;;;;;17.43;15.70;;;;;;;21.51;44.03;102043.41;5070740;28;20043;-65
2023/05/14 03:05:51;;;;;;;17.52;15.57;;;;;;;21.70;43.59;102048.06;5067841;28;20062;-65
2023/05/14 03:08:16;;;;;;;17.38;15.77;;;;;;;22.00;42.41;102037.16;5067944;28;20020;-66
2023/05/14 03:10:41;;;;;;;17.42;15.75;;;;;;;21.61;42.97;102045.72;5065781;28;20503;-66
2023/05/14 03:13:07;;;;;;;17.43;15.57;;;;;;;21.37;43.86;102037.69;5048246;28;20495;-66
2023/05/14 03:15:32;;;;;;;17.57;15.87;;;;;;;21.34;43.95;102032.50;5048270;28;20457;-66
2023/05/14 03:17:57;;;;;;;17.37;15.63;;;;;;;21.43;43.45;102036.59;5047709;28;20031;-66
2023/05/14 03:20:24;;;;;;;17.73;15.93;;;;;;;21.75;43.00;102032.78;5048142;28;20645;-66
2023/05/14 03:22:50;;;;;;;21.53;14.57;;;;;;;21.51;44.36;102035.41;5047507;28;20028;-66
2023/05/14 03:25:15;;;;;;;18.80;16.80;;;;;;;21.04;44.94;102040.66;5048654;28;20391;-67
2023/05/14 03:27:41;;;;;;;17.93;16.13;;;;;;;20.78;46.19;102034.44;5050966;28;20457;-66
2023/05/14 03:30:06;;;;;;;18.17;16.30;;;;;;;20.99;45.41;102034.63;5065901;28;20028;-66
2023/05/14 03:32:32;;;;;;;16.97;15.27;;;;;;;20.22;45.96;102037.13;5067530;28;20026;-66
2023/05/14 03:34:57;;;;;;;20.00;15.57;;;;;;;19.53;48.18;102032.94;5055131;28;20108;-66
2023/05/14 03:37:23;;;;;;;17.10;14.90;;;;;;;19.72;46.75;102041.25;5047248;28;20308;-66
2023/05/14 03:39:49;;;;;;;17.23;15.07;;;;;;;20.10;46.90;102036.59;5058856;28;20063;-66
2023/05/14 03:42:14;;;;;;;19.40;16.30;;;;;;;20.47;46.10;102027.47;5063343;28;20128;-66
2023/05/14 03:44:40;;;;;;;21.33;19.03;;;;;;;20.78;45.66;102026.47;5063544;28;20023;-66
2023/05/14 03:47:05;;;;;;;17.17;15.53;;;;;;;20.41;46.79;102027.66;5068174;28;20449;-66
2023/05/14 03:49:30;;;;;;;19.87;15.00;;;;;;;20.33;46.48;102021.72;5060968;28;20013;-65
2023/05/14 03:51:58;;;;;;;18.77;16.80;;;;;;;20.15;46.77;102018.75;5058163;28;20179;-66
2023/05/14 03:54:23;;;;;;;17.43;15.63;;;;;;;20.47;46.17;102018.63;5065314;28;20471;-66
2023/05/14 03:56:49;;;;;;;17.17;15.40;;;;;;;20.05;46.52;102017.31;5069821;28;20025;-66
2023/05/14 03:59:14;;;;;;;17.50;15.73;;;;;;;20.48;46.71;102018.59;5065976;28;20036;-66
2023/05/14 04:01:39;;;;;;;17.00;15.47;;;;;;;20.72;45.57;102018.72;5061132;28;20056;-66
2023/05/14 04:04:05;;;;;;;18.90;16.67;;;;;;;20.76;45.12;102014.16;5047680;28;20469;-65
2023/05/14 04:06:31;;;;;;;17.10;15.40;;;;;;;20.04;46.28;102020.00;5055773;28;20206;-66
2023/05/14 04:08:57;;;;;;;18.23;16.37;;;;;;;20.81;44.82;102007.78;5051160;28;20071;-66
2023/05/14 04:11:22;;;;;;;18.77;16.97;;;;;;;20.40;45.51;102017.97;5068038;28;20519;-66
2023/05/14 04:13:47;;;;;;;17.83;16.00;;;;;;;20.89;45.76;102009.28;5048083;28;20446;-65
2023/05/14 04:16:13;;;;;;;24.00;16.47;;;;;;;20.56;45.71;102013.00;5049202;28;20450;-65
2023/05/14 04:18:39;;;;;;;19.03;16.43;;;;;;;21.18;44.17;102016.22;5063678;28;20028;-66
2023/05/14 04:21:04;;;;;;;18.63;16.63;;;;;;;20.67;44.75;102025.94;5047795;28;20029;-65
2023/05/14 04:23:30;;;;;;;19.33;17.33;;;;;;;20.49;45.66;102028.28;5052720;28;20105;-66
2023/05/14 04:25:56;;;;;;;19.23;17.33;;;;;;;20.60;45.56;102024.41;5052882;28;20027;-66
2023/05/14 04:28:21;;;;;;;17.30;15.50;;;;;;;19.97;47.24;102032.59;5064421;28;20028;-66
2023/05/14 04:30:47;;;;;;;23.90;16.97;;;;;;;20.42;45.76;102029.41;5070364;28;20391;-66
2023/05/14 04:33:13;;;;;;;19.87;17.00;;;;;;;19.80;47.31;102033.09;5052008;28;20028;-66
2023/05/14 04:35:38;;;;;;;18.57;16.77;;;;;;;19.96;47.81;102025.53;5051488;28;20029;-66
2023/05/14 04:38:04;;;;;;;18.57;16.70;;;;;;;20.22;46.61;102018.56;5063028;28;20036;-65
2023/05/14 04:40:30;;;;;;;20.00;18.00;;;;;;;19.68;47.89;102029.00;5062778;28;20145;-66
2023/05/14 04:42:55;;;;;;;19.63;17.77;;;;;;;19.81;47.39;102025.09;5051573;28;20120;-65
2023/05/14 04:45:21;;;;;;;20.50;18.30;;;;;;;20.58;45.64;102031.53;5052946;28;20113;-65
2023/05/14 04:47:46;;;;;;;17.20;15.50;;;;;;;20.92;45.21;102025.13;5050572;28;20055;-65
2023/05/14 04:50:12;;;;;;;17.00;15.30;;;;;;;19.41;48.04;102031.53;5064377;28;20055;-65
2023/05/14 04:52:37;;;;;;;18.33;15.00;;;;;;;20.45;46.15;102031.09;5071615;28;20046;-65
2023/05/14 04:55:06;;;;;;;18.20;16.37;;;;;;;20.29;46.70;102026.28;5068637;28;20048;-65
2023/05/14 04:57:31;;;;;;;21.63;17.87;;;;;;;21.27;44.80;102023.88;5071172;28;20021;-65
2023/05/14 04:59:56;;;;;;;17.67;15.90;;;;;;;20.46;46.52;102024.88;5066612;28;20521;-65
2023/05/14 05:02:22;;;;;;;19.77;16.73;;;;;;;20.23;47.73;102030.91;5063427;28;20563;-65
2023/05/14 05:04:47;;;;;;;17.97;16.07;;;;;;;20.23;47.09;102042.38;5071662;28;20552;-65
2023/05/14 05:07:13;;;;;;;20.03;17.30;;;;;;;20.55;46.60;102031.66;5070147;28;20028;-65
2023/05/14 05:09:39;;;;;;;18.03;16.20;;;;;;;21.22;46.15;102027.63;5071389;28;20013;-66
2023/05/14 05:12:05;;;;;;;18.90;17.03;;;;;;;21.48;45.23;102030.19;5070653;28;20028;-66
2023/05/14 05:14:30;;;;;;;17.77;15.97;;;;;;;21.80;44.90;102029.94;5069851;28;20059;-66
2023/05/14 05:16:55;;;;;;;18.13;16.30;;;;;;;21.32;45.72;102023.69;5069673;28;20038;-65
2023/05/14 05:19:21;;;;;;;17.67;15.80;;;;;;;21.02;46.74;102031.88;5068361;28;20074;-65
2023/05/14 05:21:46;;;;;;;18.42;15.90;;;;;;;20.68;46.70;102022.41;5058372;28;20396;-65
2023/05/14 05:24:12;;;;;;;19.08;17.08;;;;;;;20.41;48.35;102025.00;5059901;28;20035;-66
2023/05/14 05:26:38;;;;;;;18.77;17.00;;;;;;;20.81;47.39;102039.66;5072321;28;20020;-65
2023/05/14 05:29:06;;;;;;;20.02;17.48;;;;;;;20.11;48.39;102033.03;5070936;28;20016;-65
2023/05/14 05:31:32;;;;;;;19.05;17.17;;;;;;;20.86;47.96;102030.66;5049901;28;20033;-65
2023/05/14 05:33:59;;;;;;;19.13;17.33;;;;;;;20.57;47.49;102037.81;5051072;28;20031;-65
2023/05/14 05:36:25;;;;;;;18.75;16.95;;;;;;;19.89;49.68;102054.03;5055702;28;20025;-65
2023/05/14 05:38:50;;;;;;;19.52;17.70;;;;;;;20.45;48.96;102026.63;5068702;28;20090;-65
2023/05/14 05:41:15;;;;;;;19.47;16.93;;;;;;;19.77;50.21;102049.94;5053736;28;20547;-65
2023/05/14 05:43:41;;;;;;;18.27;16.47;;;;;;;20.60;48.01;102040.34;5069643;28;20070;-65
2023/05/14 05:46:06;;;;;;;20.15;17.55;;;;;;;19.43;51.90;102056.22;5068035;28;20020;-65
2023/05/14 05:48:31;;;;;;;17.67;16.00;;;;;;;20.70;48.84;102047.09;5069864;28;20464;-65
2023/05/14 05:50:57;;;;;;;18.58;16.65;;;;;;;21.20;47.88;102048.97;5061868;28;20508;-65
2023/05/14 05:53:22;;;;;;;19.05;17.08;;;;;;;21.71;46.99;102040.94;5049494;28;20031;-65
2023/05/14 05:55:50;;;;;;;20.38;17.70;;;;;;;21.27;47.18;102052.28;5068453;28;20481;-65
2023/05/14 05:58:16;;;;;;;22.67;18.58;;;;;;;20.86;48.48;102049.28;5054324;28;20032;-65
2023/05/14 06:00:41;;;;;;;22.80;20.10;;;;;;;20.54;49.79;102056.47;5066156;28;20032;-65
2023/05/14 06:03:07;;;;;;;21.45;17.30;;;;;;;20.82;49.91;102056.47;5061492;28;20055;-67
2023/05/14 06:05:32;;;;;;;21.08;18.80;;;;;;;20.58;50.40;102060.75;5054015;28;20599;-64
2023/05/14 06:07:57;;;;;;;25.63;20.55;;;;;;;19.96;51.53;102066.22;5067091;28;20020;-65
2023/05/14 06:10:23;;;;;;;26.35;20.38;;;;;;;19.86;52.38;102063.88;5054732;28;20288;-64
2023/05/14 06:12:48;;;;;;;23.15;18.25;;;;;;;19.87;51.92;102062.97;5049226;28;20477;-64
2023/05/14 06:15:14;;;;;;;24.20;20.20;;;;;;;20.73;50.71;102057.66;5049721;28;20112;-65
2023/05/14 06:17:40;;;;;;;21.42;19.20;;;;;;;20.00;53.00;102056.38;5049826;28;20060;-65
2023/05/14 06:20:06;;;;;;;19.88;17.83;;;;;;;20.59;51.42;102059.84;5048344;28;20044;-64
2023/05/14 06:22:32;;;;;;;21.80;18.90;;;;;;;20.29;51.13;102073.19;5049847;28;20035;-65
2023/05/14 06:24:58;;;;;;;22.05;19.40;;;;;;;20.04;51.83;102068.63;5056967;28;20024;-65
2023/05/14 06:27:23;;;;;;;25.38;18.90;;;;;;;21.26;50.43;102072.66;5067344;28;20025;-65
2023/05/14 06:29:48;;;;;;;22.77;19.88;;;;;;;20.97;50.62;102055.06;5068874;28;20362;-65
2023/05/14 06:32:14;;;;;;;24.52;17.77;;;;;;;19.76;53.33;102072.06;5052765;28;20038;-65
2023/05/14 06:34:41;;;;;;;22.42;18.38;;;;;;;20.99;50.39;102058.53;5048570;28;20023;-65
2023/05/14 06:37:08;;;;;;;23.70;18.10;;;;;;;21.16;50.01;102061.47;5067480;28;20441;-65
2023/05/14 06:39:34;;;;;;;20.25;17.48;;;;;;;19.91;52.85;102078.75;5068527;28;20020;-65
2023/05/14 06:41:59;;;;;;;26.40;18.15;;;;;;;20.96;51.47;102061.31;5069224;28;20023;-65
2023/05/14 06:44:24;;;;;;;22.77;19.13;;;;;;;20.92;51.07;102067.66;5052766;28;20453;-65
2023/05/14 06:46:50;;;;;;;20.83;18.63;;;;;;;21.03;50.23;102065.47;5059846;28;20024;-65
2023/05/14 06:49:16;;;;;;;23.52;18.63;;;;;;;20.43;51.72;102073.63;5069844;28;20028;-65
2023/05/14 06:51:41;;;;;;;22.52;20.27;;;;;;;21.13;50.83;102072.22;5069147;28;20491;-65
2023/05/14 06:54:07;;;;;;;28.65;20.38;;;;;;;21.24;49.96;102073.63;5068487;28;20392;-65
2023/05/14 06:56:32;;;;;;;21.27;18.27;;;;;;;22.15;47.14;102067.63;5059480;28;20055;-65
2023/05/14 06:58:57;;;;;;;24.65;20.92;;;;;;;22.55;46.43;102059.88;5061428;28;20082;-65
2023/05/14 07:01:23;;;;;;;25.35;18.65;;;;;;;23.14;44.35;102060.97;5053355;28;20037;-66
2023/05/14 07:03:48;;;;;;;24.23;19.05;;;;;;;22.48;46.62;102060.13;5048681;28;20540;-66
2023/05/14 07:06:14;;;;;;;21.77;18.42;;;;;;;22.57;45.86;102063.34;5047955;28;20379;-66
2023/05/14 07:08:39;;;;;;;27.80;19.65;;;;;;;21.33;48.42;102057.34;5066542;28;20036;-65
2023/05/14 07:11:05;;;;;;;21.75;19.70;;;;;;;20.33;50.62;102054.47;5066943;28;20040;-65
2023/05/14 07:13:30;;;;;;;23.35;19.23;;;;;;;21.54;48.97;102050.41;5064999;28;20024;-66
2023/05/14 07:15:55;;;;;;;24.55;19.67;;;;;;;21.93;48.91;102056.97;5061913;28;20542;-66
2023/05/14 07:18:22;;;;;;;22.70;20.10;;;;;;;23.06;45.67;102049.75;5057750;28;20396;-65
2023/05/14 07:20:48;;;;;;;21.42;19.20;;;;;;;22.54;45.74;102035.00;5069965;28;20032;-66
2023/05/14 07:23:14;;;;;;;25.42;21.10;;;;;;;24.33;42.91;102044.81;5053369;28;20117;-66
2023/05/14 07:25:39;;;;;;;22.13;19.85;;;;;;;24.51;42.58;102046.59;5052471;28;20078;-66
2023/05/14 07:28:05;;;;;;;21.88;19.50;;;;;;;22.97;45.41;102046.53;5061185;28;20040;-66
2023/05/14 07:30:30;;;;;;;20.13;18.05;;;;;;;23.81;43.60;102056.16;5057611;28;20040;-66
2023/05/14 07:32:56;;;;;;;20.48;17.88;;;;;;;24.50;41.98;102046.69;5048795;28;20831;-66
2023/05/14 07:35:22;;;;;;;21.30;19.02;;;;;;;25.66;39.74;102049.59;5047823;28;20063;-66
2023/05/14 07:37:47;;;;;;;20.27;17.77;;;;;;;25.22;40.94;102045.69;5067323;28;20047;-65
2023/05/14 07:40:13;;;;;;;19.50;17.50;;;;;;;24.45;41.31;102040.69;5068063;28;20024;-66
2023/05/14 07:42:38;;;;;;;20.20;17.70;;;;;;;25.76;39.48;102028.56;5052046;28;20163;-66
2023/05/14 07:45:07;;;;;;;19.83;17.95;;;;;;;25.67;40.33;102037.09;5055230;28;20536;-65
2023/05/14 07:47:32;;;;;;;21.25;19.23;;;;;;;24.83;40.32;102033.44;5060378;28;20361;-67
2023/05/14 07:49:58;;;;;;;18.60;16.73;;;;;;;25.12;40.61;102039.06;5053573;28;20108;-65
2023/05/14 07:52:24;;;;;;;17.70;16.00;;;;;;;25.59;38.75;102036.66;5049312;28;20059;-66
2023/05/14 07:54:50;;;;;;;17.50;15.90;;;;;;;24.56;41.55;102036.56;5052802;28;20049;-65
2023/05/14 07:57:16;;;;;;;19.42;17.52;;;;;;;24.06;43.28;102042.56;5049541;28;20447;-65
2023/05/14 07:59:41;;;;;;;20.13;18.10;;;;;;;25.59;40.56;102036.66;5057241;28;20035;-65
2023/05/14 08:02:09;;;;;;;19.17;17.27;;;;;;;25.93;39.50;102034.78;5057176;28;20025;-66
2023/05/14 08:04:34;;;;;;;21.00;18.45;;;;;;;25.51;40.86;102037.06;5065880;28;20119;-66
2023/05/14 08:07:00;;;;;;;22.90;17.90;;;;;;;24.74;41.27;102036.56;5047856;28;20115;-66
2023/05/14 08:09:25;;;;;;;20.63;18.35;;;;;;;25.73;39.46;102034.06;5064516;28;20035;-66
2023/05/14 08:11:51;;;;;;;17.15;15.48;;;;;;;26.86;38.00;102031.19;5047518;28;20021;-65
2023/05/14 08:14:16;;;;;;;18.33;16.45;;;;;;;26.92;37.56;102025.44;5049129;28;20520;-66
2023/05/14 08:16:41;;;;;;;16.83;15.43;;;;;;;25.99;38.32;102034.41;5047679;28;20378;-65
2023/05/14 08:19:07;;;;;;;19.00;17.20;;;;;;;27.19;36.52;102024.72;5053581;28;20455;-65
2023/05/14 08:21:32;;;;;;;16.75;15.27;;;;;;;28.54;35.10;102019.69;5054342;28;20495;-65
2023/05/14 08:23:57;;;;;;;17.35;15.82;;;;;;;27.89;35.11;102025.72;5066333;28;20024;-65
2023/05/14 08:26:23;;;;;;;15.45;13.45;;;;;;;27.15;36.49;102031.25;5066677;28;20140;-65
2023/05/14 08:28:48;;;;;;;17.23;15.65;;;;;;;28.53;34.18;102026.00;5056582;28;20396;-65
2023/05/14 08:31:14;;;;;;;14.35;13.25;;;;;;;31.08;30.82;102022.94;5057812;28;20020;-65
2023/05/14 08:33:40;;;;;;;15.95;14.75;;;;;;;28.37;33.87;102025.31;5059893;28;20054;-65
2023/05/14 08:36:06;;;;;;;15.95;14.55;;;;;;;29.63;32.08;102031.91;5052776;28;20465;-65
2023/05/14 08:38:31;;;;;;;17.58;15.93;;;;;;;29.90;32.09;102029.06;5057233;28;20495;-66
2023/05/14 08:40:57;;;;;;;16.88;15.35;;;;;;;29.67;31.89;102033.41;5052392;28;20033;-66
2023/05/14 08:43:34;;;;;;;16.92;15.63;;;;;;;30.51;31.33;102022.75;5050318;28;20029;-65
2023/05/14 08:46:04;;;;;;;16.88;15.48;;;;;;;30.21;31.32;102018.69;5070272;28;20028;-66
2023/05/14 08:48:33;;;;;;;16.73;15.30;;;;;;;30.02;31.36;102015.63;5052506;28;20056;-66
2023/05/14 08:50:59;;;;;;;16.90;15.20;;;;;;;31.80;29.38;102010.88;5057459;28;20025;-65
2023/05/14 08:53:25;;;;;;;17.00;15.32;;;;;;;31.46;28.92;102013.56;5067999;28;20032;-66
2023/05/14 08:55:52;;;;;;;17.67;15.93;;;;;;;29.09;32.53;102024.94;5068524;28;20049;-66
2023/05/14 08:58:18;;;;;;;17.27;15.57;;;;;;;30.35;30.77;102012.25;5063698;28;20031;-66
2023/05/14 09:00:44;;;;;;;16.55;15.15;;;;;;;29.11;32.96;102015.78;5054611;28;20064;-65
2023/05/14 09:03:10;;;;;;;16.17;14.93;;;;;;;28.18;34.41;102015.81;5057327;28;20071;-65
2023/05/14 09:05:36;;;;;;;17.65;15.85;;;;;;;27.96;35.96;102018.13;5065474;28;20452;-65
2023/05/14 09:08:01;;;;;;;18.85;17.15;;;;;;;27.61;34.95;102002.50;5051990;28;20059;-65
2023/05/14 09:10:27;;;;;;;15.23;13.82;;;;;;;28.90;33.05;101995.75;5065518;28;20028;-65
2023/05/14 09:12:52;;;;;;;16.67;15.27;;;;;;;27.04;37.45;102004.22;5070172;28;20058;-65
2023/05/14 09:15:17;;;;;;;16.30;14.75;;;;;;;26.01;37.34;102003.06;5063138;28;20059;-65
2023/05/14 09:17:43;;;;;;;18.00;14.20;;;;;;;27.42;36.78;101995.59;5062520;28;20457;-65
2023/05/14 09:20:11;;;;;;;15.95;14.70;;;;;;;28.99;34.50;101989.75;5057611;28;20563;-65
2023/05/14 09:22:37;;;;;;;15.15;14.05;;;;;;;29.85;32.01;101988.09;5056149;28;20023;-65
2023/05/14 09:25:05;;;;;;;15.57;14.27;;;;;;;32.34;28.84;101987.47;5059378;28;20052;-65
2023/05/14 09:27:32;;;;;;;14.45;13.20;;;;;;;31.17;29.77;101984.38;5059770;28;20033;-65
2023/05/14 09:30:12;;;;;;;15.07;13.77;;;;;;;32.16;28.60;101984.47;5064836;28;20021;-65
2023/05/14 09:32:42;;;;;;;14.30;13.35;;;;;;;32.77;27.54;101977.53;5061518;28;20031;-66
2023/05/14 09:35:21;;;;;;;13.63;12.73;;;;;;;31.05;28.65;101977.25;5060792;28;20021;-66
2023/05/14 09:37:49;;;;;;;12.93;12.13;;;;;;;32.25;27.53;101972.03;5059634;28;20039;-65
2023/05/14 09:40:16;;;;;;;13.15;12.15;;;;;;;29.91;29.78;101982.28;5061298;28;20029;-66
2023/05/14 09:42:41;;;;;;;13.18;12.27;;;;;;;30.53;29.35;101976.78;5051631;28;20028;-65
2023/05/14 09:45:08;;;;;;;13.75;12.45;;;;;;;31.71;28.57;101973.78;5055456;28;20033;-66
2023/05/14 09:47:34;;;;;;;14.13;13.32;;;;;;;31.80;28.04;101968.47;5073001;28;20483;-66
2023/05/14 09:49:59;;;;;;;14.45;13.48;;;;;;;33.25;25.80;101965.22;5061724;28;20067;-65
2023/05/14 09:52:26;;;;;;;16.08;14.57;;;;;;;30.12;29.81;101965.47;5067256;28;20068;-66
2023/05/14 09:54:52;;;;;;;14.23;13.20;;;;;;;30.87;30.05;101966.94;5057478;28;20060;-66
2023/05/14 09:57:17;;;;;;;14.35;13.27;;;;;;;31.46;29.13;101970.34;5068308;28;20036;-66
2023/05/14 09:59:43;;;;;;;14.23;13.32;;;;;;;31.86;29.01;101972.53;5061757;28;20098;-66
2023/05/14 10:02:20;;;;;;;13.73;12.82;;;;;;;33.54;25.99;101962.63;5057144;28;20021;-66
2023/05/14 10:04:47;;;;;;;13.85;12.65;;;;;;;32.46;25.61;101962.06;5058859;28;20072;-74
2023/05/14 10:07:13;;;;;;;11.75;11.05;;;;;;;31.16;27.60;101968.31;5055789;28;20112;-74
2023/05/14 10:09:40;;;;;;;13.38;12.48;;;;;;;30.68;28.77;101955.84;5058498;28;20828;-71
2023/05/14 10:12:07;;;;;;;13.73;12.57;;;;;;;31.84;26.60;101970.94;5066055;28;20064;-74
2023/05/14 10:14:37;;;;;;;13.77;12.85;;;;;;;32.84;26.47;101957.06;5058587;28;20444;-73
2023/05/14 10:17:05;;;;;;;12.45;11.55;;;;;;;33.90;24.97;101960.25;5063559;28;20039;-74
2023/05/14 10:19:34;;;;;;;12.23;11.45;;;;;;;31.52;27.35;101967.16;5056590;28;20036;-74
2023/05/14 10:22:03;;;;;;;12.25;11.40;;;;;;;32.97;25.10;101952.28;5054814;28;20033;-73
2023/05/14 10:24:30;;;;;;;11.88;11.18;;;;;;;34.41;23.49;101951.97;5065789;28;20021;-74
2023/05/14 10:26:57;;;;;;;11.88;11.15;;;;;;;33.84;24.46;101960.84;5058725;28;20033;-74
2023/05/14 10:29:36;;;;;;;12.18;11.38;;;;;;;34.34;23.22;101950.88;5062139;28;20044;-74
2023/05/14 10:32:06;;;;;;;12.65;11.50;;;;;;;33.86;26.11;101948.00;5058862;28;20028;-74
2023/05/14 10:34:33;;;;;;;11.73;10.93;;;;;;;35.00;25.92;101948.09;5054179;28;20493;-74
2023/05/14 10:37:07;;;;;;;13.50;12.38;;;;;;;33.79;24.32;101941.44;5057020;28;20028;-73
2023/05/14 10:39:49;;;;;;;12.48;11.57;;;;;;;34.57;24.34;101943.22;5063110;28;20025;-74
2023/05/14 10:42:19;;;;;;;18.45;13.07;;;;;;;31.77;29.16;101946.25;5055687;28;20111;-72
2023/05/14 10:44:51;;;;;;;12.43;11.52;;;;;;;34.79;25.83;101933.88;5064011;28;20036;-73
2023/05/14 10:47:17;;;;;;;12.57;11.88;;;;;;;30.14;30.75;101939.25;5066501;28;20123;-73
2023/05/14 10:49:44;;;;;;;12.85;11.93;;;;;;;31.90;28.79;101929.88;5056053;28;20020;-73
2023/05/14 10:52:11;;;;;;;13.38;12.30;;;;;;;35.09;25.37;101921.03;5057140;28;20033;-73
2023/05/14 10:54:36;;;;;;;11.77;10.98;;;;;;;32.78;26.00;101931.41;5067109;28;20114;-73
2023/05/14 10:57:02;;;;;;;12.82;11.57;;;;;;;33.68;25.46;101922.56;5059688;28;20468;-72
2023/05/14 10:59:27;;;;;;;11.85;11.05;;;;;;;33.58;23.95;101917.97;5053145;28;20488;-73
2023/05/14 11:01:55;;;;;;;14.25;13.18;;;;;;;33.85;25.86;101913.72;5057720;28;20020;-73
2023/05/14 11:04:26;;;;;;;12.43;11.63;;;;;;;34.55;25.20;101912.66;5057634;28;20404;-73